Time;durP1;ratioP1;P1;durP2;ratioP2;P2;SDS_P1;SDS_P2;PMS_P1;PMS_P2;Temp;Humidity;BMP_temperature;BMP_pressure;BME280_temperature;BME280_humidity;BME280_pressure;Samples;Min_cycle;Max_cycle;Signal;HPM_P1;HPM_P2
2022/11/20 00:00:22;;;;;;;;;;;2.60;99.90;;;;;;5092181;28;19976;-66
2022/11/20 00:02:50;;;;;;;;;;;2.70;99.90;;;;;;5094260;28;20436;-66
2022/11/20 00:05:18;;;;;;;;;;;3.20;99.90;;;;;;5092163;28;20344;-67
2022/11/20 00:07:47;;;;;;;;;;;3.30;99.90;;;;;;5090784;28;19974;-67
2022/11/20 00:10:15;;;;;;;;;;;3.50;99.90;;;;;;5093591;28;19967;-66
2022/11/20 00:12:42;;;;;;;;;;;3.50;99.90;;;;;;5094396;28;19974;-66
2022/11/20 00:15:10;;;;;;;;;;;3.60;99.90;;;;;;5094115;28;19969;-67
2022/11/20 00:17:38;;;;;;;;;;;3.70;99.90;;;;;;5094199;28;19969;-67
2022/11/20 00:20:06;;;;;;;;;;;3.90;99.90;;;;;;5093301;28;20421;-67
2022/11/20 00:22:34;;;;;;;;;;;4.10;99.90;;;;;;5093971;28;19978;-66
2022/11/20 00:25:03;;;;;;;;;;;4.20;99.90;;;;;;5106300;22;20425;-61
2022/11/20 00:27:31;;;;;;;;;;;4.40;99.90;;;;;;5080189;28;19967;-61
2022/11/20 00:29:59;;;;;;;;;;;4.40;99.90;;;;;;5092651;28;20354;-62
2022/11/20 00:32:26;;;;;;;;;;;4.50;99.90;;;;;;5093227;28;19971;-61
2022/11/20 00:34:54;;;;;;;;;;;4.60;99.90;;;;;;5091646;28;19964;-61
2022/11/20 00:37:22;;;;;;;;;;;4.60;99.90;;;;;;5080811;28;20348;-61
2022/11/20 00:39:49;;;;;;;;;;;4.60;99.90;;;;;;5082844;28;19986;-61
2022/11/20 00:42:18;;;;;;;;;;;4.60;99.90;;;;;;5093060;28;19963;-61
2022/11/20 00:44:46;;;;;;;;;;;4.70;99.90;;;;;;5092948;28;19970;-61
2022/11/20 00:47:14;;;;;;;;;;;4.80;99.90;;;;;;5092917;28;20458;-61
2022/11/20 00:49:41;;;;;;;;;;;4.90;99.90;;;;;;5092596;28;20449;-61
2022/11/20 00:52:09;;;;;;;;;;;4.90;99.90;;;;;;5069603;28;19973;-61
2022/11/20 00:54:37;;;;;;;;;;;4.90;99.90;;;;;;5072416;28;19977;-61
2022/11/20 00:57:05;;;;;;;;;;;4.90;99.90;;;;;;5074049;28;19963;-61
2022/11/20 00:59:34;;;;;;;;;;;4.70;99.90;;;;;;5077031;28;19986;-61
2022/11/20 01:02:01;;;;;;;;;;;4.60;99.90;;;;;;5094612;28;19967;-61
2022/11/20 01:04:29;;;;;;;;;;;4.30;99.90;;;;;;5081950;28;19978;-61
2022/11/20 01:06:57;;;;;;;;;;;3.90;99.90;;;;;;5069567;28;19967;-61
2022/11/20 01:09:24;;;;;;;;;;;4.00;99.90;;;;;;5071779;28;20237;-61
2022/11/20 01:11:52;;;;;;;;;;;4.20;99.90;;;;;;5071210;28;20067;-61
2022/11/20 01:14:20;;;;;;;;;;;4.30;99.90;;;;;;5072090;28;20002;-61
2022/11/20 01:16:51;;;;;;;;;;;4.40;99.90;;;;;;5078661;28;20444;-61
2022/11/20 01:19:19;;;;;;;;;;;4.60;99.90;;;;;;5072970;28;19973;-61
2022/11/20 01:21:49;;;;;;;;;;;4.70;99.90;;;;;;5072878;28;20058;-61
2022/11/20 01:24:18;;;;;;;;;;;4.80;99.90;;;;;;5073160;28;20447;-61
2022/11/20 01:26:47;;;;;;;;;;;4.90;99.90;;;;;;5073330;28;19968;-61
2022/11/20 01:29:16;;;;;;;;;;;4.90;99.90;;;;;;5073835;28;20097;-61
2022/11/20 01:31:44;;;;;;;;;;;4.90;99.90;;;;;;5073107;28;20003;-61
2022/11/20 01:34:14;;;;;;;;;;;5.00;99.90;;;;;;5079694;28;19963;-61
2022/11/20 01:36:42;;;;;;;;;;;5.00;99.90;;;;;;5081573;28;19967;-61
2022/11/20 01:39:12;;;;;;;;;;;5.00;99.90;;;;;;5073543;28;20329;-61
2022/11/20 01:44:40;;;;;;;;;;;5.10;99.90;;;;;;5073443;28;19972;-61
2022/11/20 01:47:08;;;;;;;;;;;5.10;99.90;;;;;;5073127;28;19968;-61
2022/11/20 01:49:39;;;;;;;;;;;5.20;99.90;;;;;;5072968;28;19967;-60
2022/11/20 01:52:10;;;;;;;;;;;5.20;99.90;;;;;;5073575;28;19968;-61
2022/11/20 01:54:41;;;;;;;;;;;5.30;99.90;;;;;;5072909;28;19974;-61
2022/11/20 01:57:10;;;;;;;;;;;5.30;99.90;;;;;;5073365;28;20344;-61
2022/11/20 01:59:40;;;;;;;;;;;5.10;99.90;;;;;;5072314;28;20062;-59
2022/11/20 02:02:08;;;;;;;;;;;5.00;99.90;;;;;;5089751;28;20452;-61
2022/11/20 02:04:36;;;;;;;;;;;5.00;99.90;;;;;;5092638;28;19968;-61
2022/11/20 02:07:05;;;;;;;;;;;5.10;99.90;;;;;;5087635;28;20074;-61
2022/11/20 02:09:33;;;;;;;;;;;4.90;99.90;;;;;;5072324;28;20447;-61
2022/11/20 02:12:01;;;;;;;;;;;4.60;99.90;;;;;;5073128;28;19968;-61
2022/11/20 02:14:28;;;;;;;;;;;4.80;99.90;;;;;;5072720;28;19976;-61
2022/11/20 02:16:56;;;;;;;;;;;4.90;99.90;;;;;;5072827;28;20371;-61
2022/11/20 02:19:25;;;;;;;;;;;4.80;99.90;;;;;;5072874;28;19976;-61
2022/11/20 02:21:57;;;;;;;;;;;4.90;99.90;;;;;;5072112;28;19967;-61
2022/11/20 02:24:26;;;;;;;;;;;4.90;99.90;;;;;;5072553;28;19971;-61
2022/11/20 02:26:55;;;;;;;;;;;5.00;99.90;;;;;;5072392;28;19968;-61
2022/11/20 02:29:26;;;;;;;;;;;5.00;99.90;;;;;;5072559;28;19974;-62
2022/11/20 02:32:01;;;;;;;;;;;4.90;99.90;;;;;;5072745;28;19972;-62
2022/11/20 02:34:29;;;;;;;;;;;4.80;99.90;;;;;;5072238;28;19971;-61
2022/11/20 02:36:57;;;;;;;;;;;4.80;99.90;;;;;;5072399;28;19967;-62
2022/11/20 02:39:27;;;;;;;;;;;4.80;99.90;;;;;;5072213;28;19974;-62
2022/11/20 02:41:56;;;;;;;;;;;4.80;99.90;;;;;;5072470;28;20013;-62
2022/11/20 02:44:24;;;;;;;;;;;4.80;99.90;;;;;;5072307;28;20351;-62
2022/11/20 02:46:52;;;;;;;;;;;4.90;99.90;;;;;;5072314;28;20466;-61
2022/11/20 02:49:19;;;;;;;;;;;5.00;99.90;;;;;;5072438;28;19991;-61
2022/11/20 02:51:48;;;;;;;;;;;5.10;99.90;;;;;;5071546;28;19968;-61
2022/11/20 02:54:15;;;;;;;;;;;5.00;99.90;;;;;;5072470;28;19967;-61
2022/11/20 02:56:44;;;;;;;;;;;5.00;99.90;;;;;;5072264;28;19972;-60
2022/11/20 02:59:12;;;;;;;;;;;5.00;99.90;;;;;;5072203;28;19978;-61
2022/11/20 03:01:40;;;;;;;;;;;4.60;99.90;;;;;;5071548;28;20063;-60
2022/11/20 03:04:08;;;;;;;;;;;4.70;99.90;;;;;;5071991;28;19970;-61
2022/11/20 03:06:36;;;;;;;;;;;4.80;99.90;;;;;;5071718;28;19973;-61
2022/11/20 03:09:03;;;;;;;;;;;4.90;99.90;;;;;;5071689;28;19970;-61
2022/11/20 03:11:31;;;;;;;;;;;5.00;99.90;;;;;;5071101;28;20432;-60
2022/11/20 03:14:03;;;;;;;;;;;5.10;99.90;;;;;;5071798;28;20004;-61
2022/11/20 03:16:31;;;;;;;;;;;5.20;99.90;;;;;;5071321;28;19982;-61
2022/11/20 03:18:59;;;;;;;;;;;5.30;99.90;;;;;;5071876;28;19989;-63
2022/11/20 03:21:27;;;;;;;;;;;5.30;99.90;;;;;;5069215;28;19974;-61
2022/11/20 03:23:55;;;;;;;;;;;5.30;99.90;;;;;;5077396;28;19980;-61
2022/11/20 03:26:24;;;;;;;;;;;5.30;99.90;;;;;;5079438;28;20343;-61
2022/11/20 03:28:53;;;;;;;;;;;5.40;99.90;;;;;;5091998;28;19972;-61
2022/11/20 03:31:23;;;;;;;;;;;5.30;99.90;;;;;;5091159;28;19971;-61
2022/11/20 03:33:51;;;;;;;;;;;5.10;99.90;;;;;;5091618;28;19975;-61
2022/11/20 03:36:19;;;;;;;;;;;5.00;99.90;;;;;;5091998;28;19971;-61
2022/11/20 03:38:47;;;;;;;;;;;5.10;99.90;;;;;;5071776;28;19964;-61
2022/11/20 03:41:16;;;;;;;;;;;5.20;99.90;;;;;;5070737;28;19974;-61
2022/11/20 03:43:47;;;;;;;;;;;5.20;99.90;;;;;;5071521;28;20329;-61
2022/11/20 03:46:15;;;;;;;;;;;5.20;99.90;;;;;;5074423;28;19981;-61
2022/11/20 03:48:44;;;;;;;;;;;5.30;99.90;;;;;;5091716;28;19967;-61
2022/11/20 03:51:19;;;;;;;;;;;5.00;99.90;;;;;;5091089;28;19968;-61
2022/11/20 03:53:48;;;;;;;;;;;4.80;99.90;;;;;;5091645;28;19967;-62
2022/11/20 03:56:17;;;;;;;;;;;4.80;99.90;;;;;;5091396;28;19968;-61
2022/11/20 03:58:44;;;;;;;;;;;5.00;99.90;;;;;;5081256;28;19967;-61
2022/11/20 04:01:13;;;;;;;;;;;5.00;99.90;;;;;;5070832;28;20046;-61
2022/11/20 04:03:42;;;;;;;;;;;5.00;99.90;;;;;;5071499;28;19982;-62
2022/11/20 04:06:12;;;;;;;;;;;5.00;99.90;;;;;;5071516;28;20062;-61
2022/11/20 04:08:41;;;;;;;;;;;4.90;99.90;;;;;;5071253;28;19966;-61
2022/11/20 04:11:09;;;;;;;;;;;5.00;99.90;;;;;;5070521;28;20460;-61
2022/11/20 04:13:37;;;;;;;;;;;5.00;99.90;;;;;;5071300;28;19972;-62
2022/11/20 04:16:05;;;;;;;;;;;5.00;99.90;;;;;;5071139;28;20433;-61
2022/11/20 04:18:32;;;;;;;;;;;5.00;99.90;;;;;;5071768;28;20356;-61
2022/11/20 04:21:00;;;;;;;;;;;5.00;99.90;;;;;;5070617;28;20325;-61
2022/11/20 04:23:30;;;;;;;;;;;5.10;99.90;;;;;;5071231;28;20019;-61
2022/11/20 04:26:01;;;;;;;;;;;5.10;99.90;;;;;;5070856;28;20023;-61
2022/11/20 04:28:29;;;;;;;;;;;5.00;99.90;;;;;;5073637;28;19972;-61
2022/11/20 04:31:02;;;;;;;;;;;4.90;99.90;;;;;;5074284;28;19968;-61
2022/11/20 04:33:30;;;;;;;;;;;4.80;99.90;;;;;;5078731;28;20450;-61
2022/11/20 04:36:02;;;;;;;;;;;4.60;99.90;;;;;;5094822;28;20444;-61
2022/11/20 04:38:32;;;;;;;;;;;4.60;99.90;;;;;;5077203;28;19967;-61
2022/11/20 04:41:00;;;;;;;;;;;4.40;99.90;;;;;;5073794;28;19967;-61
2022/11/20 04:43:28;;;;;;;;;;;4.20;99.90;;;;;;5074748;28;19990;-61
2022/11/20 04:45:56;;;;;;;;;;;4.30;99.90;;;;;;5074582;28;20440;-61
2022/11/20 04:48:24;;;;;;;;;;;4.50;99.90;;;;;;5074332;28;19971;-61
2022/11/20 04:50:52;;;;;;;;;;;4.60;99.90;;;;;;5073650;28;19968;-61
2022/11/20 04:53:20;;;;;;;;;;;4.80;99.90;;;;;;5074317;28;20481;-62
2022/11/20 04:55:49;;;;;;;;;;;5.00;99.90;;;;;;5074105;28;19970;-61
2022/11/20 04:58:17;;;;;;;;;;;4.90;99.90;;;;;;5074436;28;19967;-61
2022/11/20 05:00:45;;;;;;;;;;;5.10;99.90;;;;;;5078745;28;19969;-61
2022/11/20 05:03:12;;;;;;;;;;;5.20;99.90;;;;;;5094395;28;19972;-61
2022/11/20 05:05:40;;;;;;;;;;;5.30;99.90;;;;;;5080974;28;20055;-61
2022/11/20 05:08:08;;;;;;;;;;;5.10;99.90;;;;;;5074259;28;19963;-61
2022/11/20 05:10:35;;;;;;;;;;;5.20;99.90;;;;;;5073186;28;20511;-61
2022/11/20 05:13:04;;;;;;;;;;;5.20;99.90;;;;;;5074327;28;20453;-61
2022/11/20 05:15:33;;;;;;;;;;;5.10;99.90;;;;;;5073781;28;20375;-61
2022/11/20 05:18:00;;;;;;;;;;;5.00;99.90;;;;;;5074286;28;19972;-61
2022/11/20 05:20:28;;;;;;;;;;;5.10;99.90;;;;;;5073340;28;20067;-61
2022/11/20 05:22:57;;;;;;;;;;;5.20;99.90;;;;;;5073683;28;19974;-62
2022/11/20 05:25:25;;;;;;;;;;;5.20;99.90;;;;;;5073412;28;19968;-62
2022/11/20 05:27:53;;;;;;;;;;;5.10;99.90;;;;;;5073814;28;20433;-62
2022/11/20 05:30:22;;;;;;;;;;;5.10;99.90;;;;;;5083237;28;19970;-63
2022/11/20 05:32:50;;;;;;;;;;;5.10;99.90;;;;;;5093928;28;20669;-62
2022/11/20 05:35:18;;;;;;;;;;;5.20;99.90;;;;;;5093594;28;19989;-62
2022/11/20 05:37:45;;;;;;;;;;;5.30;99.90;;;;;;5082157;28;19963;-62
2022/11/20 05:40:14;;;;;;;;;;;5.30;99.90;;;;;;5071786;28;20491;-62
2022/11/20 05:42:43;;;;;;;;;;;5.30;99.90;;;;;;5073559;28;20479;-62
2022/11/20 05:45:11;;;;;;;;;;;5.40;99.90;;;;;;5073195;28;20067;-62
2022/11/20 05:47:40;;;;;;;;;;;5.50;99.90;;;;;;5073575;28;19978;-62
2022/11/20 05:50:08;;;;;;;;;;;5.60;99.90;;;;;;5072810;28;20372;-61
2022/11/20 05:52:35;;;;;;;;;;;5.50;99.90;;;;;;5073495;28;20451;-62
2022/11/20 05:55:03;;;;;;;;;;;5.40;99.90;;;;;;5073141;28;19994;-62
2022/11/20 05:57:31;;;;;;;;;;;5.30;99.90;;;;;;5073408;28;19971;-62
2022/11/20 05:59:59;;;;;;;;;;;5.30;99.90;;;;;;5072540;28;19974;-62
2022/11/20 06:02:27;;;;;;;;;;;5.40;99.90;;;;;;5072950;28;19968;-62
2022/11/20 06:04:56;;;;;;;;;;;5.50;99.90;;;;;;5072880;28;19967;-61
2022/11/20 06:07:23;;;;;;;;;;;5.40;99.90;;;;;;5072879;28;19994;-61
2022/11/20 06:09:51;;;;;;;;;;;5.40;99.90;;;;;;5072227;28;20384;-62
2022/11/20 06:12:19;;;;;;;;;;;5.50;99.90;;;;;;5072659;28;19967;-62
2022/11/20 06:14:46;;;;;;;;;;;5.40;99.90;;;;;;5072605;28;19975;-62
2022/11/20 06:17:14;;;;;;;;;;;5.40;99.90;;;;;;5072791;28;19982;-61
2022/11/20 06:19:42;;;;;;;;;;;5.40;99.90;;;;;;5072034;28;20445;-61
2022/11/20 06:22:11;;;;;;;;;;;5.50;99.90;;;;;;5072714;28;20013;-61
2022/11/20 06:24:39;;;;;;;;;;;5.40;99.90;;;;;;5072701;28;20005;-61
2022/11/20 06:27:06;;;;;;;;;;;5.50;99.90;;;;;;5167321;22;19971;-66
2022/11/20 06:29:34;;;;;;;;;;;5.60;99.90;;;;;;5031283;28;20460;-69
2022/11/20 06:32:02;;;;;;;;;;;5.60;99.90;;;;;;5043148;28;20064;-66
2022/11/20 06:34:29;;;;;;;;;;;5.60;99.90;;;;;;5032604;28;19972;-67
2022/11/20 06:36:57;;;;;;;;;;;5.60;99.90;;;;;;5034403;28;19963;-67
2022/11/20 06:39:26;;;;;;;;;;;5.50;99.90;;;;;;5042311;28;19972;-68
2022/11/20 06:41:54;;;;;;;;;;;5.50;99.90;;;;;;5051924;28;19968;-67
2022/11/20 06:44:25;;;;;;;;;;;5.50;99.90;;;;;;5050021;28;19968;-67
2022/11/20 06:46:53;;;;;;;;;;;5.40;99.90;;;;;;5032327;28;20543;-66
2022/11/20 06:49:21;;;;;;;;;;;5.40;99.90;;;;;;5047291;28;20068;-66
2022/11/20 06:51:49;;;;;;;;;;;5.30;99.90;;;;;;5042307;28;20385;-65
2022/11/20 06:54:16;;;;;;;;;;;5.20;99.90;;;;;;5032548;28;19973;-66
2022/11/20 06:56:48;;;;;;;;;;;5.30;99.90;;;;;;5032457;28;19972;-66
2022/11/20 06:59:16;;;;;;;;;;;5.30;99.90;;;;;;5033786;28;19965;-67
2022/11/20 07:01:44;;;;;;;;;;;5.40;99.90;;;;;;5041692;28;20426;-66
2022/11/20 07:04:11;;;;;;;;;;;5.40;99.90;;;;;;5033218;28;19965;-66
2022/11/20 07:06:39;;;;;;;;;;;5.40;99.90;;;;;;5036903;28;19974;-67
2022/11/20 07:09:07;;;;;;;;;;;5.20;99.90;;;;;;5044657;28;19970;-67
2022/11/20 07:11:39;;;;;;;;;;;5.20;99.90;;;;;;5036801;28;19972;-66
2022/11/20 07:14:08;;;;;;;;;;;5.30;99.90;;;;;;5031433;28;19969;-66
2022/11/20 07:16:36;;;;;;;;;;;5.30;99.90;;;;;;5050270;28;20319;-66
2022/11/20 07:19:03;;;;;;;;;;;5.50;99.90;;;;;;5049919;28;19986;-66
2022/11/20 07:21:31;;;;;;;;;;;5.50;99.90;;;;;;5042260;28;20019;-66
2022/11/20 07:23:59;;;;;;;;;;;5.60;99.90;;;;;;5049899;28;20456;-66
2022/11/20 07:26:27;;;;;;;;;;;5.60;99.90;;;;;;5030770;28;20042;-67
2022/11/20 07:28:54;;;;;;;;;;;5.50;99.90;;;;;;5031352;28;19971;-67
2022/11/20 07:31:24;;;;;;;;;;;5.40;99.90;;;;;;5030270;28;19973;-67
2022/11/20 07:33:51;;;;;;;;;;;5.40;99.90;;;;;;5031229;28;19964;-66
2022/11/20 07:36:19;;;;;;;;;;;5.50;99.90;;;;;;5031166;28;20445;-66
2022/11/20 07:38:47;;;;;;;;;;;5.50;99.90;;;;;;5046098;28;19990;-67
2022/11/20 07:41:15;;;;;;;;;;;5.70;99.90;;;;;;5037839;28;20462;-66
2022/11/20 07:43:43;;;;;;;;;;;5.70;99.90;;;;;;5035662;28;20006;-67
2022/11/20 07:46:11;;;;;;;;;;;5.80;99.90;;;;;;5050735;28;19971;-66
2022/11/20 07:48:40;;;;;;;;;;;5.90;99.90;;;;;;5045657;28;19972;-66
2022/11/20 07:51:08;;;;;;;;;;;5.40;99.90;;;;;;5033983;28;19972;-68
2022/11/20 07:53:36;;;;;;;;;;;5.10;99.90;;;;;;5027145;28;19979;-66
2022/11/20 07:56:04;;;;;;;;;;;5.00;99.90;;;;;;5029767;28;20017;-66
2022/11/20 07:58:34;;;;;;;;;;;4.70;99.90;;;;;;5031991;28;19976;-65
2022/11/20 08:01:05;;;;;;;;;;;4.40;99.90;;;;;;5033476;28;19972;-66
2022/11/20 08:03:33;;;;;;;;;;;4.30;99.90;;;;;;5024197;28;19972;-65
2022/11/20 08:06:02;;;;;;;;;;;4.20;99.90;;;;;;5033007;28;20540;-66
2022/11/20 08:08:30;;;;;;;;;;;4.20;99.90;;;;;;5032266;28;19983;-66
2022/11/20 08:16:28;;;;;;;;;;;3.80;99.90;;;;;;5031245;28;19977;-66
2022/11/20 08:18:56;;;;;;;;;;;3.80;99.90;;;;;;5036466;28;20328;-66
2022/11/20 08:21:25;;;;;;;;;;;3.70;99.90;;;;;;5034576;28;20066;-67
2022/11/20 08:23:52;;;;;;;;;;;3.60;99.90;;;;;;5031649;28;20357;-65
2022/11/20 08:26:21;;;;;;;;;;;3.60;99.90;;;;;;5028369;28;20320;-65
2022/11/20 08:28:49;;;;;;;;;;;3.60;99.90;;;;;;5033393;28;19963;-66
2022/11/20 08:31:17;;;;;;;;;;;3.60;99.90;;;;;;5026406;28;19972;-66
2022/11/20 08:33:44;;;;;;;;;;;3.60;99.90;;;;;;5034597;28;19980;-67
2022/11/20 08:36:12;;;;;;;;;;;3.60;99.90;;;;;;5026407;28;20409;-66
2022/11/20 08:38:41;;;;;;;;;;;3.70;99.90;;;;;;5028438;28;19973;-66
2022/11/20 08:41:27;;;;;;;;;;;3.80;99.90;;;;;;5030872;28;20434;-66
2022/11/20 08:43:56;;;;;;;;;;;4.00;99.90;;;;;;5031364;28;20450;-66
2022/11/20 08:46:24;;;;;;;;;;;4.00;99.90;;;;;;5028498;28;20447;-66
2022/11/20 08:48:52;;;;;;;;;;;4.10;99.90;;;;;;5030013;28;20460;-66
2022/11/20 08:51:21;;;;;;;;;;;4.10;99.90;;;;;;5034316;28;19964;-66
2022/11/20 08:53:50;;;;;;;;;;;4.10;99.90;;;;;;5032265;28;19977;-66
2022/11/20 08:56:17;;;;;;;;;;;4.20;99.90;;;;;;5029871;28;19984;-67
2022/11/20 08:58:45;;;;;;;;;;;4.30;99.90;;;;;;5030475;28;19975;-65
2022/11/20 09:01:33;;;;;;;;;;;4.40;99.90;;;;;;5026721;28;20338;-66
2022/11/20 09:04:01;;;;;;;;;;;4.50;99.90;;;;;;5030428;28;19979;-66
2022/11/20 09:06:28;;;;;;;;;;;4.40;99.90;;;;;;5030324;28;20566;-66
2022/11/20 09:08:57;;;;;;;;;;;4.50;99.90;;;;;;5029120;28;19982;-67
2022/11/20 09:11:32;;;;;;;;;;;4.50;99.90;;;;;;5025387;28;20033;-66
2022/11/20 09:14:02;;;;;;;;;;;4.50;99.90;;;;;;5027257;28;19972;-65
2022/11/20 09:16:30;;;;;;;;;;;4.50;99.90;;;;;;5027557;28;19971;-67
2022/11/20 09:18:57;;;;;;;;;;;4.40;99.90;;;;;;5029589;28;19972;-66
2022/11/20 09:21:45;;;;;;;;;;;4.60;99.90;;;;;;5026353;28;20445;-65
2022/11/20 09:24:14;;;;;;;;;;;4.70;99.90;;;;;;5027794;28;20058;-66
2022/11/20 09:26:42;;;;;;;;;;;4.70;99.90;;;;;;5031654;28;19972;-67
2022/11/20 09:29:10;;;;;;;;;;;4.70;99.90;;;;;;5033634;28;19972;-67
2022/11/20 09:31:38;;;;;;;;;;;4.70;99.90;;;;;;5027801;28;19980;-66
2022/11/20 09:34:05;;;;;;;;;;;4.80;99.90;;;;;;5024688;28;19983;-66
2022/11/20 09:36:33;;;;;;;;;;;4.90;99.90;;;;;;5025805;28;19978;-66
2022/11/20 09:39:01;;;;;;;;;;;4.90;99.90;;;;;;5028069;28;19975;-65
2022/11/20 09:41:47;;;;;;;;;;;5.00;99.90;;;;;;5027694;28;19979;-65
2022/11/20 09:44:21;;;;;;;;;;;5.00;99.90;;;;;;5029509;28;20018;-66
2022/11/20 09:46:54;;;;;;;;;;;5.00;99.90;;;;;;5030100;28;19971;-66
2022/11/20 09:49:29;;;;;;;;;;;5.00;99.90;;;;;;5026751;28;19972;-66
2022/11/20 09:52:00;;;;;;;;;;;5.00;99.90;;;;;;5030723;28;19979;-66
2022/11/20 09:54:30;;;;;;;;;;;5.10;99.90;;;;;;5028576;28;19977;-66
2022/11/20 09:57:00;;;;;;;;;;;5.20;99.90;;;;;;5027766;28;19984;-66
2022/11/20 09:59:33;;;;;;;;;;;5.10;99.90;;;;;;5027685;28;20452;-66
2022/11/20 10:02:01;;;;;;;;;;;5.10;99.90;;;;;;5025936;28;19973;-66
2022/11/20 10:04:32;;;;;;;;;;;5.10;99.90;;;;;;5029741;28;20920;-67
2022/11/20 10:07:07;;;;;;;;;;;5.20;99.90;;;;;;5028812;28;20012;-65
2022/11/20 10:09:56;;;;;;;;;;;5.10;99.90;;;;;;5025039;28;19972;-65
2022/11/20 10:12:30;;;;;;;;;;;4.90;99.90;;;;;;5025724;28;20003;-67
2022/11/20 10:15:06;;;;;;;;;;;4.70;99.90;;;;;;5029060;28;20897;-66
2022/11/20 10:17:46;;;;;;;;;;;4.70;99.90;;;;;;5029508;28;19994;-65
2022/11/20 10:20:17;;;;;;;;;;;4.70;99.90;;;;;;5025834;28;19972;-65
2022/11/20 10:22:50;;;;;;;;;;;4.70;99.90;;;;;;5029140;28;20019;-66
2022/11/20 10:25:19;;;;;;;;;;;4.60;99.90;;;;;;5024752;28;19979;-66
2022/11/20 10:27:57;;;;;;;;;;;4.70;99.90;;;;;;5026146;28;19972;-66
2022/11/20 10:30:25;;;;;;;;;;;4.70;99.90;;;;;;5030439;28;19975;-66
2022/11/20 10:32:55;;;;;;;;;;;4.60;99.90;;;;;;5028081;28;20106;-65
2022/11/20 10:35:25;;;;;;;;;;;4.70;99.90;;;;;;5028673;28;19983;-66
2022/11/20 10:37:55;;;;;;;;;;;4.60;99.90;;;;;;5025654;28;20365;-66
2022/11/20 10:40:26;;;;;;;;;;;4.70;99.90;;;;;;5024943;28;20440;-66
2022/11/20 10:42:56;;;;;;;;;;;4.80;99.90;;;;;;5028815;28;19998;-66
2022/11/20 10:45:37;;;;;;;;;;;4.70;99.90;;;;;;5025633;28;19968;-66
2022/11/20 10:48:13;;;;;;;;;;;4.70;99.90;;;;;;5033748;28;20919;-65
2022/11/20 10:50:46;;;;;;;;;;;4.60;99.90;;;;;;5031099;28;19978;-66
2022/11/20 10:53:18;;;;;;;;;;;4.60;99.90;;;;;;5027188;28;19987;-65
2022/11/20 10:55:50;;;;;;;;;;;4.70;99.90;;;;;;5031726;28;19986;-69
2022/11/20 10:58:21;;;;;;;;;;;4.70;99.90;;;;;;5026470;28;19978;-66
2022/11/20 11:00:49;;;;;;;;;;;4.70;99.90;;;;;;5027985;28;19964;-67
2022/11/20 11:03:23;;;;;;;;;;;4.70;99.90;;;;;;5027077;28;19972;-66
2022/11/20 11:05:51;;;;;;;;;;;4.70;99.90;;;;;;5028526;28;19976;-66
2022/11/20 11:08:20;;;;;;;;;;;4.70;99.90;;;;;;5025507;28;20441;-66
2022/11/20 11:10:52;;;;;;;;;;;4.70;99.90;;;;;;5025152;28;19973;-67
2022/11/20 11:13:21;;;;;;;;;;;4.80;99.90;;;;;;5024030;28;20525;-67
2022/11/20 11:15:49;;;;;;;;;;;4.90;99.90;;;;;;5028190;28;20296;-66
2022/11/20 11:18:24;;;;;;;;;;;5.00;99.90;;;;;;5026322;28;20429;-66
2022/11/20 11:20:53;;;;;;;;;;;5.00;99.90;;;;;;5027046;28;19971;-66
2022/11/20 11:23:32;;;;;;;;;;;5.00;99.90;;;;;;5024032;28;19964;-68
2022/11/20 11:26:01;;;;;;;;;;;5.10;99.90;;;;;;5026362;28;20022;-66
2022/11/20 11:28:30;;;;;;;;;;;5.10;99.90;;;;;;5025266;28;19973;-66
2022/11/20 11:30:58;;;;;;;;;;;5.20;99.90;;;;;;5024661;28;19975;-66
2022/11/20 11:33:26;;;;;;;;;;;5.20;99.90;;;;;;5024746;28;20453;-65
2022/11/20 11:35:57;;;;;;;;;;;5.30;99.90;;;;;;5026953;28;19968;-66
2022/11/20 11:38:29;;;;;;;;;;;5.20;99.90;;;;;;5022126;28;20056;-66
2022/11/20 11:40:57;;;;;;;;;;;5.10;99.90;;;;;;5029002;28;19972;-69
2022/11/20 11:46:25;;;;;;;;;;;5.20;99.90;;;;;;5026281;28;21199;-67
2022/11/20 11:48:56;;;;;;;;;;;5.30;99.90;;;;;;5029088;28;19964;-66
2022/11/20 11:51:28;;;;;;;;;;;5.30;99.90;;;;;;5023132;28;19972;-66
2022/11/20 11:53:57;;;;;;;;;;;5.30;99.90;;;;;;5027299;28;19986;-67
2022/11/20 11:56:25;;;;;;;;;;;5.40;99.90;;;;;;5027555;28;19968;-65
2022/11/20 11:58:55;;;;;;;;;;;5.50;99.90;;;;;;5027375;28;19970;-66
2022/11/20 12:01:28;;;;;;;;;;;5.50;99.90;;;;;;5028010;28;20460;-67
2022/11/20 12:03:59;;;;;;;;;;;5.60;99.90;;;;;;5024987;28;19975;-65
2022/11/20 12:06:31;;;;;;;;;;;5.70;99.90;;;;;;5025277;28;19976;-66
2022/11/20 12:09:02;;;;;;;;;;;5.90;99.90;;;;;;5026523;28;19973;-65
2022/11/20 12:11:32;;;;;;;;;;;5.90;99.90;;;;;;5022230;28;20075;-66
2022/11/20 12:14:04;;;;;;;;;;;5.90;99.90;;;;;;5023209;28;19973;-66
2022/11/20 12:16:35;;;;;;;;;;;6.00;99.90;;;;;;5030147;28;21049;-66
2022/11/20 12:19:07;;;;;;;;;;;6.00;99.90;;;;;;5028388;28;19978;-65
2022/11/20 12:21:39;;;;;;;;;;;6.20;99.90;;;;;;5027642;28;20055;-66
2022/11/20 12:24:14;;;;;;;;;;;6.30;99.90;;;;;;5028391;28;20445;-67
2022/11/20 12:26:48;;;;;;;;;;;6.40;99.90;;;;;;5034347;28;19990;-66
2022/11/20 12:29:20;;;;;;;;;;;6.40;99.90;;;;;;5028246;28;19972;-66
2022/11/20 12:31:58;;;;;;;;;;;6.40;99.90;;;;;;5024743;28;19974;-65
2022/11/20 12:34:36;;;;;;;;;;;6.30;99.90;;;;;;5026296;28;19975;-66
2022/11/20 12:37:10;;;;;;;;;;;6.10;99.90;;;;;;5023237;28;19982;-67
2022/11/20 12:39:41;;;;;;;;;;;6.20;99.90;;;;;;5022201;28;20453;-68
2022/11/20 12:45:31;;;;;;;;;;;6.20;99.90;;;;;;5026444;28;20094;-67
2022/11/20 12:48:23;;;;;;;;;;;6.10;99.90;;;;;;5020759;28;20473;-66
2022/11/20 12:50:57;;;;;;;;;;;6.20;99.90;;;;;;5039193;28;19971;-66
2022/11/20 12:53:45;;;;;;;;;;;6.20;99.90;;;;;;5050397;28;20464;-66
2022/11/20 12:56:22;;;;;;;;;;;6.00;99.90;;;;;;5044051;28;19964;-65
2022/11/20 12:58:55;;;;;;;;;;;5.90;99.90;;;;;;5052618;28;20530;-66
2022/11/20 13:04:25;;;;;;;;;;;5.70;99.90;;;;;;5048870;28;19972;-66
2022/11/20 13:06:53;;;;;;;;;;;5.70;99.90;;;;;;5052772;28;19972;-66
2022/11/20 13:09:23;;;;;;;;;;;5.80;99.90;;;;;;5054233;28;19974;-66
2022/11/20 13:11:54;;;;;;;;;;;5.70;99.90;;;;;;5053408;28;20473;-67
2022/11/20 13:14:27;;;;;;;;;;;5.80;99.90;;;;;;5054216;28;19968;-66
2022/11/20 13:16:57;;;;;;;;;;;5.80;99.90;;;;;;5054161;28;19978;-66
2022/11/20 13:19:33;;;;;;;;;;;5.80;99.90;;;;;;5053581;28;20810;-66
2022/11/20 13:22:01;;;;;;;;;;;5.80;99.90;;;;;;5053710;28;20492;-65
2022/11/20 13:24:30;;;;;;;;;;;5.80;99.90;;;;;;5045585;28;20441;-66
2022/11/20 13:27:02;;;;;;;;;;;5.60;99.90;;;;;;5053702;28;19975;-66
2022/11/20 13:29:30;;;;;;;;;;;5.60;99.90;;;;;;5053796;28;20070;-65
2022/11/20 13:32:05;;;;;;;;;;;5.60;99.90;;;;;;5053404;28;19976;-65
2022/11/20 13:34:36;;;;;;;;;;;5.50;99.90;;;;;;5053738;28;20345;-66
2022/11/20 13:37:04;;;;;;;;;;;5.50;99.90;;;;;;5053540;28;20067;-67
2022/11/20 13:39:33;;;;;;;;;;;5.40;99.90;;;;;;5053322;28;19971;-66
2022/11/20 13:42:01;;;;;;;;;;;5.40;99.90;;;;;;5053386;28;19972;-66
2022/11/20 13:44:34;;;;;;;;;;;5.30;99.90;;;;;;5054133;28;20463;-67
2022/11/20 13:47:02;;;;;;;;;;;5.30;99.90;;;;;;5053848;28;19968;-65
2022/11/20 13:49:32;;;;;;;;;;;5.30;99.90;;;;;;5053689;28;20026;-65
2022/11/20 13:52:09;;;;;;;;;;;5.20;99.90;;;;;;5053178;28;19995;-66
2022/11/20 13:54:52;;;;;;;;;;;5.30;99.90;;;;;;5045494;28;20429;-66
2022/11/20 13:57:34;;;;;;;;;;;5.30;99.90;;;;;;5053366;28;19968;-65
2022/11/20 14:00:06;;;;;;;;;;;5.50;99.90;;;;;;5052470;28;19978;-65
2022/11/20 14:02:34;;;;;;;;;;;5.50;99.90;;;;;;5053014;28;19972;-66
2022/11/20 14:05:02;;;;;;;;;;;5.60;99.90;;;;;;5053174;28;20453;-66
2022/11/20 14:07:36;;;;;;;;;;;5.70;99.90;;;;;;5052916;28;20029;-65
2022/11/20 14:10:05;;;;;;;;;;;5.80;99.90;;;;;;5052433;28;20011;-65
2022/11/20 14:12:33;;;;;;;;;;;5.80;99.90;;;;;;5052939;28;19968;-66
2022/11/20 14:15:01;;;;;;;;;;;5.80;99.90;;;;;;5053103;28;19968;-66
2022/11/20 14:17:31;;;;;;;;;;;5.70;99.90;;;;;;5052766;28;19975;-66
2022/11/20 14:20:03;;;;;;;;;;;5.70;99.90;;;;;;5051778;28;21253;-65
2022/11/20 14:22:30;;;;;;;;;;;5.80;99.90;;;;;;5049701;28;19968;-65
2022/11/20 14:25:04;;;;;;;;;;;6.00;99.90;;;;;;5047303;28;19976;-66
2022/11/20 14:27:34;;;;;;;;;;;6.00;99.90;;;;;;5052554;28;20448;-66
2022/11/20 14:30:02;;;;;;;;;;;5.90;99.90;;;;;;5052069;28;19968;-66
2022/11/20 14:32:31;;;;;;;;;;;6.00;99.90;;;;;;5052701;28;19968;-66
2022/11/20 14:35:02;;;;;;;;;;;6.00;99.90;;;;;;5052731;28;19968;-65
2022/11/20 14:37:34;;;;;;;;;;;6.00;99.90;;;;;;5052561;28;19973;-66
2022/11/20 14:40:05;;;;;;;;;;;6.00;99.90;;;;;;5052032;28;19995;-67
2022/11/20 14:42:34;;;;;;;;;;;6.00;99.90;;;;;;5052753;28;20006;-65
2022/11/20 14:45:02;;;;;;;;;;;6.10;99.90;;;;;;5052808;28;20007;-66
2022/11/20 14:47:31;;;;;;;;;;;6.10;99.90;;;;;;5052403;28;19975;-66
2022/11/20 14:49:59;;;;;;;;;;;6.10;99.90;;;;;;5051637;28;20453;-66
2022/11/20 14:52:33;;;;;;;;;;;6.10;99.90;;;;;;5049019;28;20368;-66
2022/11/20 14:55:01;;;;;;;;;;;6.00;99.90;;;;;;5047053;28;20459;-65
2022/11/20 14:57:31;;;;;;;;;;;6.10;99.90;;;;;;5052273;28;19968;-66
2022/11/20 15:00:06;;;;;;;;;;;6.10;99.90;;;;;;5051713;28;19975;-66
2022/11/20 15:02:34;;;;;;;;;;;6.10;99.90;;;;;;5052145;28;19972;-66